Ault Field, Washington
Current Conditions -  °F | °C
As of 5:19 PM on Saturday 20 Dec 2014 (Local Time) from KNUW Reporting Station
Light Rain Light Rain  
Wind Chill: 52°   Ceiling: 1300
Heat Index: 52°   Visibility: 9mi
Dew Point: 47°   Wind: 25mph
Humidity: 83%   Direction: 140°SE
Pressure: 29.38"   Gusts: 35mph
Location:  48.3182°N, 122.634°W
Report Text: KNUW 210119Z 14022G30KT 9SM -RA FEW009 BKN013 OVC070 11/08 A2938 RMK AO2 PK WND 14031/0108 P0002 T01110083 VISNO E $
Loading
Personal Weather Stations






























Interactive Weather Map New forecast layout! Learn more

10-Day Weather Forecast

Advertisements
Track Severe Weather on mobile